sensor_id;sensor_type;location;lat;lon;timestamp;temperature;humidity
17489;DHT22;8861;52.644;4.734;2023-03-25T00:00:00;9.40;99.90
17489;DHT22;8861;52.644;4.734;2023-03-25T00:02:32;9.50;99.90
17489;DHT22;8861;52.644;4.734;2023-03-25T00:04:59;9.50;99.90
17489;DHT22;8861;52.644;4.734;2023-03-25T00:07:29;9.50;99.90
17489;DHT22;8861;52.644;4.734;2023-03-25T00:09:56;9.50;99.90
17489;DHT22;8861;52.644;4.734;2023-03-25T00:12:24;9.50;99.90
17489;DHT22;8861;52.644;4.734;2023-03-25T00:14:50;9.50;99.90
17489;DHT22;8861;52.644;4.734;2023-03-25T00:17:20;9.40;99.90
17489;DHT22;8861;52.644;4.734;2023-03-25T00:19:47;9.40;99.90
17489;DHT22;8861;52.644;4.734;2023-03-25T00:22:16;9.40;99.90
17489;DHT22;8861;52.644;4.734;2023-03-25T00:24:44;9.40;99.90
17489;DHT22;8861;52.644;4.734;2023-03-25T00:27:11;9.40;99.90
17489;DHT22;8861;52.644;4.734;2023-03-25T00:29:39;9.40;99.90
17489;DHT22;8861;52.644;4.734;2023-03-25T00:32:07;9.40;99.90
17489;DHT22;8861;52.644;4.734;2023-03-25T00:34:40;9.40;99.90
17489;DHT22;8861;52.644;4.734;2023-03-25T00:37:21;9.30;99.90
17489;DHT22;8861;52.644;4.734;2023-03-25T00:39:51;9.30;99.90
17489;DHT22;8861;52.644;4.734;2023-03-25T00:42:26;9.20;99.90
17489;DHT22;8861;52.644;4.734;2023-03-25T00:44:54;9.20;99.90
17489;DHT22;8861;52.644;4.734;2023-03-25T00:47:21;9.20;99.90
17489;DHT22;8861;52.644;4.734;2023-03-25T00:49:49;9.10;99.90
17489;DHT22;8861;52.644;4.734;2023-03-25T00:52:16;9.20;99.90
17489;DHT22;8861;52.644;4.734;2023-03-25T00:54:43;9.20;99.90
17489;DHT22;8861;52.644;4.734;2023-03-25T00:57:11;9.20;99.90
17489;DHT22;8861;52.644;4.734;2023-03-25T00:59:38;9.10;99.90
17489;DHT22;8861;52.644;4.734;2023-03-25T01:02:05;9.10;99.90
17489;DHT22;8861;52.644;4.734;2023-03-25T01:04:35;9.20;99.90
17489;DHT22;8861;52.644;4.734;2023-03-25T01:07:03;9.10;99.90
17489;DHT22;8861;52.644;4.734;2023-03-25T01:09:31;9.10;99.90
17489;DHT22;8861;52.644;4.734;2023-03-25T01:12:16;9.10;99.90
17489;DHT22;8861;52.644;4.734;2023-03-25T01:14:46;9.10;99.90
17489;DHT22;8861;52.644;4.734;2023-03-25T01:17:13;9.10;99.90
17489;DHT22;8861;52.644;4.734;2023-03-25T01:19:40;9.10;99.90
17489;DHT22;8861;52.644;4.734;2023-03-25T01:22:08;9.00;99.90
17489;DHT22;8861;52.644;4.734;2023-03-25T01:24:35;9.10;99.90
17489;DHT22;8861;52.644;4.734;2023-03-25T01:27:03;9.00;99.90
17489;DHT22;8861;52.644;4.734;2023-03-25T01:29:31;9.10;99.90
17489;DHT22;8861;52.644;4.734;2023-03-25T01:31:58;9.10;99.90
17489;DHT22;8861;52.644;4.734;2023-03-25T01:34:25;9.20;99.90
17489;DHT22;8861;52.644;4.734;2023-03-25T01:36:52;9.20;99.90
17489;DHT22;8861;52.644;4.734;2023-03-25T01:39:20;9.30;99.90
17489;DHT22;8861;52.644;4.734;2023-03-25T01:41:49;9.30;99.90
17489;DHT22;8861;52.644;4.734;2023-03-25T01:47:23;9.50;99.90
17489;DHT22;8861;52.644;4.734;2023-03-25T01:49:51;9.50;99.90
17489;DHT22;8861;52.644;4.734;2023-03-25T01:52:23;9.50;99.90
17489;DHT22;8861;52.644;4.734;2023-03-25T01:54:52;9.50;99.90
17489;DHT22;8861;52.644;4.734;2023-03-25T01:57:20;9.50;99.90
17489;DHT22;8861;52.644;4.734;2023-03-25T01:59:48;9.60;99.90
17489;DHT22;8861;52.644;4.734;2023-03-25T02:02:16;9.60;99.90
17489;DHT22;8861;52.644;4.734;2023-03-25T02:04:49;9.60;99.90
17489;DHT22;8861;52.644;4.734;2023-03-25T02:07:24;9.60;99.90
17489;DHT22;8861;52.644;4.734;2023-03-25T02:09:56;9.60;99.90
17489;DHT22;8861;52.644;4.734;2023-03-25T02:12:24;9.60;99.90
17489;DHT22;8861;52.644;4.734;2023-03-25T02:14:52;9.50;99.90
17489;DHT22;8861;52.644;4.734;2023-03-25T02:17:26;9.50;99.90
17489;DHT22;8861;52.644;4.734;2023-03-25T02:23:28;9.40;99.90
17489;DHT22;8861;52.644;4.734;2023-03-25T02:26:17;9.40;99.90
17489;DHT22;8861;52.644;4.734;2023-03-25T02:28:51;9.40;99.90
17489;DHT22;8861;52.644;4.734;2023-03-25T02:31:42;9.40;99.90
17489;DHT22;8861;52.644;4.734;2023-03-25T02:34:28;9.40;99.90
17489;DHT22;8861;52.644;4.734;2023-03-25T02:37:18;9.40;99.90
17489;DHT22;8861;52.644;4.734;2023-03-25T02:39:56;9.40;99.90
17489;DHT22;8861;52.644;4.734;2023-03-25T02:42:30;9.50;99.90
17489;DHT22;8861;52.644;4.734;2023-03-25T02:45:00;9.50;99.90
17489;DHT22;8861;52.644;4.734;2023-03-25T02:47:31;9.50;99.90
17489;DHT22;8861;52.644;4.734;2023-03-25T02:50:03;9.50;99.90
17489;DHT22;8861;52.644;4.734;2023-03-25T02:52:34;9.50;99.90
17489;DHT22;8861;52.644;4.734;2023-03-25T02:55:07;9.40;99.90
17489;DHT22;8861;52.644;4.734;2023-03-25T02:57:38;9.40;99.90
17489;DHT22;8861;52.644;4.734;2023-03-25T03:00:09;9.30;99.90
17489;DHT22;8861;52.644;4.734;2023-03-25T03:02:41;9.20;99.90
17489;DHT22;8861;52.644;4.734;2023-03-25T03:05:22;9.20;99.90
17489;DHT22;8861;52.644;4.734;2023-03-25T03:07:54;9.10;99.90
17489;DHT22;8861;52.644;4.734;2023-03-25T03:10:28;9.10;99.90
17489;DHT22;8861;52.644;4.734;2023-03-25T03:13:03;9.10;99.90
17489;DHT22;8861;52.644;4.734;2023-03-25T03:15:38;9.20;99.90
17489;DHT22;8861;52.644;4.734;2023-03-25T03:18:13;9.20;99.90
17489;DHT22;8861;52.644;4.734;2023-03-25T03:20:46;9.20;99.90
17489;DHT22;8861;52.644;4.734;2023-03-25T03:23:21;9.20;99.90
17489;DHT22;8861;52.644;4.734;2023-03-25T03:25:53;9.10;99.90
17489;DHT22;8861;52.644;4.734;2023-03-25T03:28:27;9.10;99.90
17489;DHT22;8861;52.644;4.734;2023-03-25T03:31:00;9.00;99.90
17489;DHT22;8861;52.644;4.734;2023-03-25T03:33:34;9.00;99.90
17489;DHT22;8861;52.644;4.734;2023-03-25T03:36:06;9.00;99.90
17489;DHT22;8861;52.644;4.734;2023-03-25T03:38:38;8.90;99.90
17489;DHT22;8861;52.644;4.734;2023-03-25T03:41:10;8.90;99.90
17489;DHT22;8861;52.644;4.734;2023-03-25T03:43:40;8.90;99.90
17489;DHT22;8861;52.644;4.734;2023-03-25T03:46:14;8.80;99.90
17489;DHT22;8861;52.644;4.734;2023-03-25T03:48:44;8.80;99.90
17489;DHT22;8861;52.644;4.734;2023-03-25T03:51:15;8.70;99.90
17489;DHT22;8861;52.644;4.734;2023-03-25T03:53:46;8.70;99.90
17489;DHT22;8861;52.644;4.734;2023-03-25T03:56:19;8.70;99.90
17489;DHT22;8861;52.644;4.734;2023-03-25T03:58:49;8.80;99.90
17489;DHT22;8861;52.644;4.734;2023-03-25T04:01:24;8.80;99.90
17489;DHT22;8861;52.644;4.734;2023-03-25T04:03:57;8.90;99.90
17489;DHT22;8861;52.644;4.734;2023-03-25T04:06:28;8.90;99.90
17489;DHT22;8861;52.644;4.734;2023-03-25T04:09:02;8.90;99.90
17489;DHT22;8861;52.644;4.734;2023-03-25T04:11:38;9.00;99.90
17489;DHT22;8861;52.644;4.734;2023-03-25T04:14:06;8.90;99.90
17489;DHT22;8861;52.644;4.734;2023-03-25T04:16:34;9.00;99.90
17489;DHT22;8861;52.644;4.734;2023-03-25T04:19:02;9.00;99.90
17489;DHT22;8861;52.644;4.734;2023-03-25T04:21:30;9.00;99.90
17489;DHT22;8861;52.644;4.734;2023-03-25T04:23:57;9.00;99.90
17489;DHT22;8861;52.644;4.734;2023-03-25T04:26:26;9.00;99.90
17489;DHT22;8861;52.644;4.734;2023-03-25T04:28:55;9.10;99.90
17489;DHT22;8861;52.644;4.734;2023-03-25T04:31:24;9.20;99.90
17489;DHT22;8861;52.644;4.734;2023-03-25T04:33:56;9.20;99.90
17489;DHT22;8861;52.644;4.734;2023-03-25T04:36:23;9.20;99.90
17489;DHT22;8861;52.644;4.734;2023-03-25T04:38:53;9.20;99.90
17489;DHT22;8861;52.644;4.734;2023-03-25T04:41:20;9.20;99.90
17489;DHT22;8861;52.644;4.734;2023-03-25T04:43:47;9.20;99.90
17489;DHT22;8861;52.644;4.734;2023-03-25T04:46:16;9.20;99.90
17489;DHT22;8861;52.644;4.734;2023-03-25T04:48:45;9.20;99.90
17489;DHT22;8861;52.644;4.734;2023-03-25T04:51:13;9.20;99.90
17489;DHT22;8861;52.644;4.734;2023-03-25T04:53:41;9.20;99.90
17489;DHT22;8861;52.644;4.734;2023-03-25T04:56:11;9.10;99.90
17489;DHT22;8861;52.644;4.734;2023-03-25T04:58:40;9.00;99.90
17489;DHT22;8861;52.644;4.734;2023-03-25T05:01:09;9.00;99.90
17489;DHT22;8861;52.644;4.734;2023-03-25T05:03:43;9.00;99.90
17489;DHT22;8861;52.644;4.734;2023-03-25T05:06:10;8.90;99.90
17489;DHT22;8861;52.644;4.734;2023-03-25T05:08:37;8.90;99.90
17489;DHT22;8861;52.644;4.734;2023-03-25T05:11:05;8.90;99.90
17489;DHT22;8861;52.644;4.734;2023-03-25T05:13:32;9.00;99.90
17489;DHT22;8861;52.644;4.734;2023-03-25T05:15:59;9.00;99.90
17489;DHT22;8861;52.644;4.734;2023-03-25T05:18:25;9.00;99.90
17489;DHT22;8861;52.644;4.734;2023-03-25T05:20:54;9.10;99.90
17489;DHT22;8861;52.644;4.734;2023-03-25T05:23:21;9.20;99.90
17489;DHT22;8861;52.644;4.734;2023-03-25T05:25:50;9.20;99.90
17489;DHT22;8861;52.644;4.734;2023-03-25T05:28:17;9.30;99.90
17489;DHT22;8861;52.644;4.734;2023-03-25T05:30:46;9.30;99.90
17489;DHT22;8861;52.644;4.734;2023-03-25T05:33:14;9.40;99.90
17489;DHT22;8861;52.644;4.734;2023-03-25T05:35:42;9.40;99.90
17489;DHT22;8861;52.644;4.734;2023-03-25T05:38:11;9.40;99.90
17489;DHT22;8861;52.644;4.734;2023-03-25T05:40:43;9.50;99.90
17489;DHT22;8861;52.644;4.734;2023-03-25T05:43:10;9.40;99.90
17489;DHT22;8861;52.644;4.734;2023-03-25T05:45:37;9.50;99.90
17489;DHT22;8861;52.644;4.734;2023-03-25T05:48:05;9.50;99.90
17489;DHT22;8861;52.644;4.734;2023-03-25T05:50:33;9.50;99.90
17489;DHT22;8861;52.644;4.734;2023-03-25T05:53:00;9.50;99.90
17489;DHT22;8861;52.644;4.734;2023-03-25T05:55:28;9.50;99.90
17489;DHT22;8861;52.644;4.734;2023-03-25T05:57:55;9.60;99.90
17489;DHT22;8861;52.644;4.734;2023-03-25T06:00:23;9.60;99.90
17489;DHT22;8861;52.644;4.734;2023-03-25T06:02:50;9.60;99.90
17489;DHT22;8861;52.644;4.734;2023-03-25T06:05:17;9.50;99.90
17489;DHT22;8861;52.644;4.734;2023-03-25T06:07:48;9.50;99.90
17489;DHT22;8861;52.644;4.734;2023-03-25T06:10:15;9.40;99.90
17489;DHT22;8861;52.644;4.734;2023-03-25T06:12:44;9.40;99.90
17489;DHT22;8861;52.644;4.734;2023-03-25T06:15:13;9.30;99.90
17489;DHT22;8861;52.644;4.734;2023-03-25T06:17:43;9.20;99.90
17489;DHT22;8861;52.644;4.734;2023-03-25T06:20:12;9.10;99.90
17489;DHT22;8861;52.644;4.734;2023-03-25T06:22:42;9.00;99.90
17489;DHT22;8861;52.644;4.734;2023-03-25T06:25:11;9.00;99.90
17489;DHT22;8861;52.644;4.734;2023-03-25T06:27:39;8.90;99.90
17489;DHT22;8861;52.644;4.734;2023-03-25T06:30:09;8.90;99.90
17489;DHT22;8861;52.644;4.734;2023-03-25T06:32:37;8.90;99.90
17489;DHT22;8861;52.644;4.734;2023-03-25T06:35:06;8.90;99.90
17489;DHT22;8861;52.644;4.734;2023-03-25T06:37:34;8.90;99.90
17489;DHT22;8861;52.644;4.734;2023-03-25T06:40:01;9.00;99.90
17489;DHT22;8861;52.644;4.734;2023-03-25T06:42:30;9.10;99.90
17489;DHT22;8861;52.644;4.734;2023-03-25T06:44:57;9.20;99.90
17489;DHT22;8861;52.644;4.734;2023-03-25T06:47:25;9.20;99.90
17489;DHT22;8861;52.644;4.734;2023-03-25T06:49:52;9.30;99.90
17489;DHT22;8861;52.644;4.734;2023-03-25T06:52:19;9.30;99.90
17489;DHT22;8861;52.644;4.734;2023-03-25T06:54:46;9.30;99.90
17489;DHT22;8861;52.644;4.734;2023-03-25T06:57:13;9.40;99.90
17489;DHT22;8861;52.644;4.734;2023-03-25T06:59:40;9.40;99.90
17489;DHT22;8861;52.644;4.734;2023-03-25T07:02:10;9.40;99.90
17489;DHT22;8861;52.644;4.734;2023-03-25T07:04:39;9.40;99.90
17489;DHT22;8861;52.644;4.734;2023-03-25T07:07:08;9.50;99.90
17489;DHT22;8861;52.644;4.734;2023-03-25T07:09:36;9.50;99.90
17489;DHT22;8861;52.644;4.734;2023-03-25T07:12:03;9.60;99.90
17489;DHT22;8861;52.644;4.734;2023-03-25T07:14:30;9.70;99.90
17489;DHT22;8861;52.644;4.734;2023-03-25T07:16:57;9.80;99.90
17489;DHT22;8861;52.644;4.734;2023-03-25T07:19:25;9.80;99.90
17489;DHT22;8861;52.644;4.734;2023-03-25T07:21:53;9.80;99.90
17489;DHT22;8861;52.644;4.734;2023-03-25T07:24:20;9.90;99.90
17489;DHT22;8861;52.644;4.734;2023-03-25T07:26:47;9.90;99.90
17489;DHT22;8861;52.644;4.734;2023-03-25T07:29:14;9.90;99.90
17489;DHT22;8861;52.644;4.734;2023-03-25T07:31:42;9.80;99.90
17489;DHT22;8861;52.644;4.734;2023-03-25T07:34:09;9.70;99.90
17489;DHT22;8861;52.644;4.734;2023-03-25T07:36:36;9.70;99.90
17489;DHT22;8861;52.644;4.734;2023-03-25T07:39:04;9.70;99.90
17489;DHT22;8861;52.644;4.734;2023-03-25T07:41:32;9.70;99.90
17489;DHT22;8861;52.644;4.734;2023-03-25T07:43:59;9.90;99.90
17489;DHT22;8861;52.644;4.734;2023-03-25T07:46:26;9.90;99.90
17489;DHT22;8861;52.644;4.734;2023-03-25T07:48:53;10.10;99.90
17489;DHT22;8861;52.644;4.734;2023-03-25T07:51:20;10.30;99.90
17489;DHT22;8861;52.644;4.734;2023-03-25T07:53:47;10.60;99.90
17489;DHT22;8861;52.644;4.734;2023-03-25T07:56:16;10.60;99.90
17489;DHT22;8861;52.644;4.734;2023-03-25T07:58:43;10.50;99.90
17489;DHT22;8861;52.644;4.734;2023-03-25T08:01:11;10.20;99.90
17489;DHT22;8861;52.644;4.734;2023-03-25T08:03:38;10.00;99.90
17489;DHT22;8861;52.644;4.734;2023-03-25T08:06:06;9.70;99.90
17489;DHT22;8861;52.644;4.734;2023-03-25T08:08:34;9.50;99.90
17489;DHT22;8861;52.644;4.734;2023-03-25T08:11:01;9.30;99.90
17489;DHT22;8861;52.644;4.734;2023-03-25T08:13:30;9.20;99.90
17489;DHT22;8861;52.644;4.734;2023-03-25T08:15:57;9.20;99.90
17489;DHT22;8861;52.644;4.734;2023-03-25T08:18:24;9.30;99.90
17489;DHT22;8861;52.644;4.734;2023-03-25T08:20:51;9.30;99.90
17489;DHT22;8861;52.644;4.734;2023-03-25T08:23:19;9.50;99.90
17489;DHT22;8861;52.644;4.734;2023-03-25T08:25:48;9.80;99.90
17489;DHT22;8861;52.644;4.734;2023-03-25T08:28:16;10.00;99.90
17489;DHT22;8861;52.644;4.734;2023-03-25T08:30:49;10.20;99.90
17489;DHT22;8861;52.644;4.734;2023-03-25T08:33:19;10.30;99.90
17489;DHT22;8861;52.644;4.734;2023-03-25T08:35:47;10.50;99.90
17489;DHT22;8861;52.644;4.734;2023-03-25T08:38:15;10.50;99.90
17489;DHT22;8861;52.644;4.734;2023-03-25T08:40:43;10.60;99.90
17489;DHT22;8861;52.644;4.734;2023-03-25T08:43:10;10.70;99.90
17489;DHT22;8861;52.644;4.734;2023-03-25T08:45:37;10.70;99.90
17489;DHT22;8861;52.644;4.734;2023-03-25T08:48:06;10.80;99.90
17489;DHT22;8861;52.644;4.734;2023-03-25T08:50:33;10.90;99.90
17489;DHT22;8861;52.644;4.734;2023-03-25T08:53:00;10.90;99.90
17489;DHT22;8861;52.644;4.734;2023-03-25T08:55:27;10.90;99.90
17489;DHT22;8861;52.644;4.734;2023-03-25T08:57:54;10.90;99.90
17489;DHT22;8861;52.644;4.734;2023-03-25T09:00:21;11.00;99.90
17489;DHT22;8861;52.644;4.734;2023-03-25T09:02:49;11.10;99.90
17489;DHT22;8861;52.644;4.734;2023-03-25T09:05:18;11.10;99.90
17489;DHT22;8861;52.644;4.734;2023-03-25T09:07:45;11.20;99.90
17489;DHT22;8861;52.644;4.734;2023-03-25T09:10:12;11.30;99.90
17489;DHT22;8861;52.644;4.734;2023-03-25T09:12:40;11.30;99.90
17489;DHT22;8861;52.644;4.734;2023-03-25T09:15:09;11.40;99.90
17489;DHT22;8861;52.644;4.734;2023-03-25T09:17:37;11.40;99.90
17489;DHT22;8861;52.644;4.734;2023-03-25T09:20:06;11.40;99.90
17489;DHT22;8861;52.644;4.734;2023-03-25T09:22:35;11.50;99.90
17489;DHT22;8861;52.644;4.734;2023-03-25T09:25:04;11.50;99.90
17489;DHT22;8861;52.644;4.734;2023-03-25T09:27:31;11.70;99.90
17489;DHT22;8861;52.644;4.734;2023-03-25T09:29:58;11.80;99.90
17489;DHT22;8861;52.644;4.734;2023-03-25T09:32:25;11.90;99.90
17489;DHT22;8861;52.644;4.734;2023-03-25T09:34:53;12.00;99.90
17489;DHT22;8861;52.644;4.734;2023-03-25T09:37:20;12.10;99.90
17489;DHT22;8861;52.644;4.734;2023-03-25T09:39:48;12.00;99.90
17489;DHT22;8861;52.644;4.734;2023-03-25T09:42:38;11.90;99.90
17489;DHT22;8861;52.644;4.734;2023-03-25T09:45:23;11.90;99.90
17489;DHT22;8861;52.644;4.734;2023-03-25T09:47:55;11.90;99.90
17489;DHT22;8861;52.644;4.734;2023-03-25T09:50:24;12.00;99.90
17489;DHT22;8861;52.644;4.734;2023-03-25T09:52:56;12.10;99.90
17489;DHT22;8861;52.644;4.734;2023-03-25T09:55:29;12.30;99.90
17489;DHT22;8861;52.644;4.734;2023-03-25T09:58:01;12.40;99.90
17489;DHT22;8861;52.644;4.734;2023-03-25T10:00:30;12.60;99.90
17489;DHT22;8861;52.644;4.734;2023-03-25T10:03:17;12.50;99.90
17489;DHT22;8861;52.644;4.734;2023-03-25T10:05:58;12.30;99.90
17489;DHT22;8861;52.644;4.734;2023-03-25T10:08:37;12.10;99.90
17489;DHT22;8861;52.644;4.734;2023-03-25T10:11:13;12.10;99.90
17489;DHT22;8861;52.644;4.734;2023-03-25T10:13:48;12.10;99.90
17489;DHT22;8861;52.644;4.734;2023-03-25T10:16:25;12.10;99.90
17489;DHT22;8861;52.644;4.734;2023-03-25T10:19:04;12.00;99.90
17489;DHT22;8861;52.644;4.734;2023-03-25T10:21:41;12.00;99.90
17489;DHT22;8861;52.644;4.734;2023-03-25T10:24:16;11.90;99.90
17489;DHT22;8861;52.644;4.734;2023-03-25T10:26:48;11.80;99.90
17489;DHT22;8861;52.644;4.734;2023-03-25T10:29:20;11.70;99.90
17489;DHT22;8861;52.644;4.734;2023-03-25T10:31:51;11.80;99.90
17489;DHT22;8861;52.644;4.734;2023-03-25T10:34:20;11.80;99.90
17489;DHT22;8861;52.644;4.734;2023-03-25T10:36:52;11.90;99.90
17489;DHT22;8861;52.644;4.734;2023-03-25T10:39:21;11.90;99.90
17489;DHT22;8861;52.644;4.734;2023-03-25T10:41:55;11.80;99.90
17489;DHT22;8861;52.644;4.734;2023-03-25T10:44:24;11.90;99.90
17489;DHT22;8861;52.644;4.734;2023-03-25T10:46:55;12.10;99.90
17489;DHT22;8861;52.644;4.734;2023-03-25T10:49:27;12.20;99.90
17489;DHT22;8861;52.644;4.734;2023-03-25T10:51:55;12.40;99.90
17489;DHT22;8861;52.644;4.734;2023-03-25T10:54:27;12.50;99.90
17489;DHT22;8861;52.644;4.734;2023-03-25T10:57:00;12.40;99.90
17489;DHT22;8861;52.644;4.734;2023-03-25T10:59:32;12.30;99.90
17489;DHT22;8861;52.644;4.734;2023-03-25T11:02:03;12.20;99.90
17489;DHT22;8861;52.644;4.734;2023-03-25T11:04:41;12.20;99.90
17489;DHT22;8861;52.644;4.734;2023-03-25T11:07:16;12.30;99.90
17489;DHT22;8861;52.644;4.734;2023-03-25T11:09:44;12.20;99.90
17489;DHT22;8861;52.644;4.734;2023-03-25T11:12:17;12.30;99.90
17489;DHT22;8861;52.644;4.734;2023-03-25T11:14:53;12.30;99.90
17489;DHT22;8861;52.644;4.734;2023-03-25T11:17:21;12.40;99.90
17489;DHT22;8861;52.644;4.734;2023-03-25T11:19:53;12.30;99.90
17489;DHT22;8861;52.644;4.734;2023-03-25T11:22:23;12.20;99.90
17489;DHT22;8861;52.644;4.734;2023-03-25T11:24:57;12.20;99.90
17489;DHT22;8861;52.644;4.734;2023-03-25T11:27:27;12.10;99.90
17489;DHT22;8861;52.644;4.734;2023-03-25T11:29:56;12.10;99.90
17489;DHT22;8861;52.644;4.734;2023-03-25T11:32:32;12.10;99.90
17489;DHT22;8861;52.644;4.734;2023-03-25T11:35:01;12.10;99.90
17489;DHT22;8861;52.644;4.734;2023-03-25T11:37:29;12.20;99.90
17489;DHT22;8861;52.644;4.734;2023-03-25T11:40:03;12.30;99.90
17489;DHT22;8861;52.644;4.734;2023-03-25T11:42:36;12.30;99.90
17489;DHT22;8861;52.644;4.734;2023-03-25T11:45:06;12.30;99.90
17489;DHT22;8861;52.644;4.734;2023-03-25T11:47:36;12.30;99.90
17489;DHT22;8861;52.644;4.734;2023-03-25T11:50:04;12.50;99.90
17489;DHT22;8861;52.644;4.734;2023-03-25T11:52:38;12.80;99.90
17489;DHT22;8861;52.644;4.734;2023-03-25T11:55:14;13.30;99.90
17489;DHT22;8861;52.644;4.734;2023-03-25T11:57:44;13.60;99.90
17489;DHT22;8861;52.644;4.734;2023-03-25T12:00:25;13.70;99.90
17489;DHT22;8861;52.644;4.734;2023-03-25T12:02:59;13.70;99.90
17489;DHT22;8861;52.644;4.734;2023-03-25T12:05:26;13.70;99.90
17489;DHT22;8861;52.644;4.734;2023-03-25T12:08:02;13.70;99.90
17489;DHT22;8861;52.644;4.734;2023-03-25T12:10:38;13.80;99.90
17489;DHT22;8861;52.644;4.734;2023-03-25T12:13:14;13.80;99.90
17489;DHT22;8861;52.644;4.734;2023-03-25T12:15:46;13.80;99.90
17489;DHT22;8861;52.644;4.734;2023-03-25T12:18:33;13.90;99.90
17489;DHT22;8861;52.644;4.734;2023-03-25T12:21:09;13.80;99.90
17489;DHT22;8861;52.644;4.734;2023-03-25T12:23:42;13.70;99.90
17489;DHT22;8861;52.644;4.734;2023-03-25T12:26:15;13.90;99.90
17489;DHT22;8861;52.644;4.734;2023-03-25T12:29:08;14.10;99.90
17489;DHT22;8861;52.644;4.734;2023-03-25T12:31:46;14.30;99.90
17489;DHT22;8861;52.644;4.734;2023-03-25T12:34:26;14.40;99.90
17489;DHT22;8861;52.644;4.734;2023-03-25T12:37:01;14.30;99.90
17489;DHT22;8861;52.644;4.734;2023-03-25T12:39:45;14.60;99.90
17489;DHT22;8861;52.644;4.734;2023-03-25T12:42:24;14.70;99.90
17489;DHT22;8861;52.644;4.734;2023-03-25T12:45:05;14.70;99.90
17489;DHT22;8861;52.644;4.734;2023-03-25T12:47:42;14.60;99.90
17489;DHT22;8861;52.644;4.734;2023-03-25T12:50:20;14.50;99.90
17489;DHT22;8861;52.644;4.734;2023-03-25T12:52:55;14.40;99.90
17489;DHT22;8861;52.644;4.734;2023-03-25T12:55:46;14.50;99.90
17489;DHT22;8861;52.644;4.734;2023-03-25T12:58:31;14.60;99.90
17489;DHT22;8861;52.644;4.734;2023-03-25T13:01:10;14.70;99.90
17489;DHT22;8861;52.644;4.734;2023-03-25T13:03:57;14.80;99.90
17489;DHT22;8861;52.644;4.734;2023-03-25T13:06:31;14.80;99.90
17489;DHT22;8861;52.644;4.734;2023-03-25T13:09:03;14.60;99.90
17489;DHT22;8861;52.644;4.734;2023-03-25T13:11:36;14.30;99.90
17489;DHT22;8861;52.644;4.734;2023-03-25T13:14:06;14.00;99.90
17489;DHT22;8861;52.644;4.734;2023-03-25T13:16:37;13.50;99.90
17489;DHT22;8861;52.644;4.734;2023-03-25T13:19:10;13.00;99.90
17489;DHT22;8861;52.644;4.734;2023-03-25T13:21:41;12.40;99.90
17489;DHT22;8861;52.644;4.734;2023-03-25T13:24:12;11.70;99.90
17489;DHT22;8861;52.644;4.734;2023-03-25T13:26:43;11.20;99.90
17489;DHT22;8861;52.644;4.734;2023-03-25T13:29:12;10.90;99.90
17489;DHT22;8861;52.644;4.734;2023-03-25T13:31:44;10.70;99.90
17489;DHT22;8861;52.644;4.734;2023-03-25T13:34:19;10.60;99.90
17489;DHT22;8861;52.644;4.734;2023-03-25T13:36:55;10.40;99.90
17489;DHT22;8861;52.644;4.734;2023-03-25T13:39:28;10.30;99.90
17489;DHT22;8861;52.644;4.734;2023-03-25T13:42:01;10.10;99.90
17489;DHT22;8861;52.644;4.734;2023-03-25T13:44:32;10.10;99.90
17489;DHT22;8861;52.644;4.734;2023-03-25T13:47:05;10.10;99.90
17489;DHT22;8861;52.644;4.734;2023-03-25T13:49:38;10.20;99.90
17489;DHT22;8861;52.644;4.734;2023-03-25T13:52:07;10.20;99.90
17489;DHT22;8861;52.644;4.734;2023-03-25T13:54:36;10.20;99.90
17489;DHT22;8861;52.644;4.734;2023-03-25T14:00:17;10.20;99.90
17489;DHT22;8861;52.644;4.734;2023-03-25T14:03:17;10.20;99.90
17489;DHT22;8861;52.644;4.734;2023-03-25T14:11:50;10.30;99.90
17489;DHT22;8861;52.644;4.734;2023-03-25T14:14:20;10.50;99.90
17489;DHT22;8861;52.644;4.734;2023-03-25T14:16:50;10.70;99.90
17489;DHT22;8861;52.644;4.734;2023-03-25T14:19:24;11.00;99.90
17489;DHT22;8861;52.644;4.734;2023-03-25T14:21:53;11.30;99.90
17489;DHT22;8861;52.644;4.734;2023-03-25T14:24:25;11.60;99.90
17489;DHT22;8861;52.644;4.734;2023-03-25T14:26:58;11.70;99.90
17489;DHT22;8861;52.644;4.734;2023-03-25T14:29:33;11.80;99.90
17489;DHT22;8861;52.644;4.734;2023-03-25T14:32:05;11.80;99.90
17489;DHT22;8861;52.644;4.734;2023-03-25T14:34:35;11.80;99.90
17489;DHT22;8861;52.644;4.734;2023-03-25T14:40:01;11.80;99.90
17489;DHT22;8861;52.644;4.734;2023-03-25T14:42:57;11.60;99.90
17489;DHT22;8861;52.644;4.734;2023-03-25T14:45:51;11.60;99.90
17489;DHT22;8861;52.644;4.734;2023-03-25T14:48:29;11.50;99.90
17489;DHT22;8861;52.644;4.734;2023-03-25T14:51:21;11.60;99.90
17489;DHT22;8861;52.644;4.734;2023-03-25T14:54:02;11.60;99.90
17489;DHT22;8861;52.644;4.734;2023-03-25T14:56:33;11.70;99.90
17489;DHT22;8861;52.644;4.734;2023-03-25T14:59:07;11.60;99.90
17489;DHT22;8861;52.644;4.734;2023-03-25T15:01:36;11.50;99.90
17489;DHT22;8861;52.644;4.734;2023-03-25T15:04:10;11.40;99.90
17489;DHT22;8861;52.644;4.734;2023-03-25T15:06:41;11.30;99.90
17489;DHT22;8861;52.644;4.734;2023-03-25T15:09:10;11.20;99.90
17489;DHT22;8861;52.644;4.734;2023-03-25T15:11:41;11.00;99.90
17489;DHT22;8861;52.644;4.734;2023-03-25T15:14:13;10.80;99.90
17489;DHT22;8861;52.644;4.734;2023-03-25T15:16:57;10.70;99.90
17489;DHT22;8861;52.644;4.734;2023-03-25T15:19:25;10.70;99.90
17489;DHT22;8861;52.644;4.734;2023-03-25T15:22:17;10.80;99.90
17489;DHT22;8861;52.644;4.734;2023-03-25T15:24:49;10.80;99.90
17489;DHT22;8861;52.644;4.734;2023-03-25T15:27:36;10.90;99.90
17489;DHT22;8861;52.644;4.734;2023-03-25T15:30:12;11.20;99.90
17489;DHT22;8861;52.644;4.734;2023-03-25T15:32:56;11.60;99.90
17489;DHT22;8861;52.644;4.734;2023-03-25T15:35:45;11.70;99.90
17489;DHT22;8861;52.644;4.734;2023-03-25T15:38:36;11.70;99.90
17489;DHT22;8861;52.644;4.734;2023-03-25T15:41:31;11.50;99.90
17489;DHT22;8861;52.644;4.734;2023-03-25T15:44:33;11.30;99.90
17489;DHT22;8861;52.644;4.734;2023-03-25T15:47:21;11.10;99.90
17489;DHT22;8861;52.644;4.734;2023-03-25T15:50:13;11.00;99.90
17489;DHT22;8861;52.644;4.734;2023-03-25T15:53:02;11.10;99.90
17489;DHT22;8861;52.644;4.734;2023-03-25T15:55:40;10.90;99.90
17489;DHT22;8861;52.644;4.734;2023-03-25T15:58:19;10.60;99.90
17489;DHT22;8861;52.644;4.734;2023-03-25T16:00:51;10.60;99.90
17489;DHT22;8861;52.644;4.734;2023-03-25T16:03:22;10.40;99.90
17489;DHT22;8861;52.644;4.734;2023-03-25T16:05:54;10.30;99.90
17489;DHT22;8861;52.644;4.734;2023-03-25T16:08:25;10.20;99.90
17489;DHT22;8861;52.644;4.734;2023-03-25T16:11:23;10.20;99.90
17489;DHT22;8861;52.644;4.734;2023-03-25T16:14:02;10.20;99.90
17489;DHT22;8861;52.644;4.734;2023-03-25T16:16:31;10.10;99.90
17489;DHT22;8861;52.644;4.734;2023-03-25T16:19:01;10.20;99.90
17489;DHT22;8861;52.644;4.734;2023-03-25T16:21:29;10.20;99.90
17489;DHT22;8861;52.644;4.734;2023-03-25T16:24:01;10.20;99.90
17489;DHT22;8861;52.644;4.734;2023-03-25T16:26:35;10.20;99.90
17489;DHT22;8861;52.644;4.734;2023-03-25T16:29:08;10.20;99.90
17489;DHT22;8861;52.644;4.734;2023-03-25T16:31:35;10.30;99.90
17489;DHT22;8861;52.644;4.734;2023-03-25T16:34:12;10.30;99.90
17489;DHT22;8861;52.644;4.734;2023-03-25T16:36:41;10.40;99.90
17489;DHT22;8861;52.644;4.734;2023-03-25T16:39:12;10.30;99.90
17489;DHT22;8861;52.644;4.734;2023-03-25T16:41:44;10.30;99.90